createdAt,value
2023-03-30T00:00:17.283Z,3.24
2023-03-30T00:05:26.455Z,1.75
2023-03-30T00:10:54.080Z,3.17
2023-03-30T00:16:20.473Z,2.44
2023-03-30T00:27:51.855Z,3.09
2023-03-30T00:34:58.190Z,1.58
2023-03-30T00:40:30.880Z,3.05
2023-03-30T00:45:34.326Z,1.90
2023-03-30T00:50:51.686Z,2.06
2023-03-30T01:07:10.371Z,3.03
2023-03-30T01:12:51.636Z,3.10
2023-03-30T01:18:29.644Z,3.14
2023-03-30T01:24:27.240Z,1.77
2023-03-30T01:30:10.019Z,3.13
2023-03-30T01:36:12.982Z,2.93
2023-03-30T01:41:58.316Z,1.24
2023-03-30T01:53:37.355Z,0.67
2023-03-30T01:58:49.166Z,0.73
2023-03-30T02:03:57.596Z,0.16
2023-03-30T02:09:13.463Z,0.86
2023-03-30T02:14:38.033Z,0.26
2023-03-30T02:20:01.139Z,0.01
2023-03-30T02:25:19.703Z,-0.08
2023-03-30T02:37:37.443Z,0.00
2023-03-30T02:43:10.098Z,-0.93
2023-03-30T02:48:49.406Z,-1.24
2023-03-30T03:05:23.210Z,-0.16
2023-03-30T03:16:56.063Z,0.11
2023-03-30T03:22:58.233Z,-0.96
2023-03-30T03:39:50.396Z,-0.67
2023-03-30T03:44:51.114Z,-1.44
2023-03-30T03:50:06.720Z,-0.60
2023-03-30T03:55:04.475Z,-0.19
2023-03-30T04:00:15.955Z,-0.25
2023-03-30T04:05:29.705Z,-1.35
2023-03-30T04:10:38.498Z,-1.00
2023-03-30T04:15:54.932Z,-0.10
2023-03-30T04:20:54.010Z,-0.16
2023-03-30T04:26:05.188Z,-0.97
2023-03-30T04:31:30.316Z,-0.85
2023-03-30T04:36:51.875Z,-0.94
2023-03-30T04:47:38.897Z,-1.61
2023-03-30T04:53:10.685Z,-0.04
2023-03-30T04:58:32.679Z,-0.07
2023-03-30T05:03:46.581Z,-0.40
2023-03-30T05:09:03.139Z,0.03
2023-03-30T05:14:17.400Z,-0.28
2023-03-30T05:19:47.423Z,-1.26
2023-03-30T05:24:50.310Z,-0.35
2023-03-30T05:30:01.020Z,0.61
2023-03-30T05:35:18.750Z,-0.04
2023-03-30T05:40:34.959Z,0.78
2023-03-30T05:46:01.480Z,0.47
2023-03-30T05:51:18.142Z,0.73
2023-03-30T05:56:54.592Z,1.48
2023-03-30T06:02:01.021Z,1.39
2023-03-30T06:07:01.586Z,2.31
2023-03-30T06:12:02.552Z,1.12
2023-03-30T06:17:14.941Z,2.71
2023-03-30T06:22:20.835Z,2.55
2023-03-30T06:27:38.986Z,2.61
2023-03-30T06:32:34.969Z,2.84
2023-03-30T06:37:54.731Z,3.52
2023-03-30T06:42:51.000Z,3.40
2023-03-30T06:48:14.647Z,3.93
2023-03-30T06:53:11.180Z,4.13
2023-03-30T06:58:11.360Z,3.09
2023-03-30T07:03:06.948Z,3.79
2023-03-30T07:08:08.090Z,4.51
2023-03-30T07:13:21.056Z,3.93
2023-03-30T07:18:17.881Z,4.88
2023-03-30T07:23:12.441Z,4.88
2023-03-30T07:28:10.430Z,5.33
2023-03-30T07:33:04.313Z,5.80
2023-03-30T07:38:03.444Z,5.63
2023-03-30T07:43:07.262Z,5.97
2023-03-30T07:48:06.125Z,6.70
2023-03-30T07:53:01.932Z,6.84
2023-03-30T07:58:06.641Z,7.03
2023-03-30T08:03:03.068Z,7.30
2023-03-30T08:08:05.542Z,7.00
2023-03-30T08:13:23.292Z,7.94
2023-03-30T08:18:52.609Z,8.06
2023-03-30T08:23:55.229Z,8.26
2023-03-30T08:28:52.168Z,7.92
2023-03-30T08:33:48.576Z,8.98
2023-03-30T08:38:46.584Z,9.62
2023-03-30T08:43:55.420Z,11.44
2023-03-30T08:48:53.877Z,13.15
2023-03-30T08:54:04.730Z,13.78
2023-03-30T08:59:13.400Z,15.42
2023-03-30T09:04:19.193Z,16.32
2023-03-30T09:09:19.166Z,16.42
2023-03-30T09:14:40.943Z,16.75
2023-03-30T09:19:52.164Z,16.57
2023-03-30T09:24:46.612Z,15.66
2023-03-30T09:29:48.674Z,16.44
2023-03-30T09:34:48.421Z,15.49
2023-03-30T09:40:00.202Z,15.65
2023-03-30T09:45:01.400Z,15.57
2023-03-30T09:50:18.453Z,15.21
2023-03-30T09:55:38.988Z,14.17
2023-03-30T10:00:49.238Z,14.60
2023-03-30T10:05:45.063Z,14.36
2023-03-30T10:10:53.691Z,14.06
2023-03-30T10:15:55.322Z,13.22
2023-03-30T10:20:55.637Z,13.20
2023-03-30T10:25:56.607Z,14.41
2023-03-30T10:31:02.449Z,13.84
2023-03-30T10:36:08.255Z,13.97
2023-03-30T10:41:14.994Z,14.20
2023-03-30T10:46:19.895Z,15.02
2023-03-30T10:51:25.882Z,15.00
2023-03-30T10:56:30.770Z,15.77
2023-03-30T11:02:05.105Z,16.04
2023-03-30T11:07:17.445Z,16.02
2023-03-30T11:12:21.644Z,16.73
2023-03-30T11:17:24.531Z,16.47
2023-03-30T11:22:38.051Z,18.09
2023-03-30T11:27:37.036Z,18.47
2023-03-30T11:32:43.486Z,19.91
2023-03-30T11:37:46.412Z,21.02
2023-03-30T11:43:00.712Z,22.13
2023-03-30T11:48:29.798Z,22.74
2023-03-30T11:53:34.787Z,22.91
2023-03-30T11:58:40.473Z,23.31
2023-03-30T12:03:49.812Z,23.16
2023-03-30T12:09:01.734Z,23.04
2023-03-30T12:14:14.458Z,23.41
2023-03-30T12:19:20.588Z,23.03
2023-03-30T12:24:20.569Z,23.12
2023-03-30T12:34:29.304Z,23.81
2023-03-30T12:39:33.321Z,23.21
2023-03-30T12:44:46.211Z,23.36
2023-03-30T12:50:05.032Z,23.43
2023-03-30T12:55:45.671Z,24.00
2023-03-30T13:01:38.442Z,24.77
2023-03-30T13:06:59.003Z,25.39
2023-03-30T13:12:39.585Z,25.61
2023-03-30T13:18:12.695Z,25.62
2023-03-30T13:23:44.427Z,24.43
2023-03-30T13:29:01.329Z,24.92
2023-03-30T13:34:37.483Z,25.59
2023-03-30T13:39:53.132Z,25.28
2023-03-30T13:45:11.066Z,25.12
2023-03-30T13:50:11.186Z,24.82
2023-03-30T13:55:17.766Z,25.60
2023-03-30T14:00:37.654Z,25.49
2023-03-30T14:05:34.983Z,24.84
2023-03-30T14:10:54.948Z,26.05
2023-03-30T14:16:19.836Z,26.22
2023-03-30T14:22:27.812Z,25.56
2023-03-30T14:28:07.513Z,25.59
2023-03-30T14:33:15.436Z,25.29
2023-03-30T14:38:32.563Z,24.35
2023-03-30T14:43:48.570Z,24.79
2023-03-30T14:49:14.035Z,24.68
2023-03-30T14:59:39.899Z,24.45
2023-03-30T15:04:53.023Z,24.66
2023-03-30T15:10:05.552Z,23.21
2023-03-30T15:15:25.494Z,23.05
2023-03-30T15:20:37.090Z,20.12
2023-03-30T15:25:40.285Z,19.16
2023-03-30T15:30:46.394Z,17.28
2023-03-30T15:36:24.176Z,16.53
2023-03-30T15:41:57.012Z,14.88
2023-03-30T15:47:04.323Z,14.39
2023-03-30T15:52:11.564Z,13.77
2023-03-30T15:57:16.943Z,14.47
2023-03-30T16:02:18.702Z,13.42
2023-03-30T16:07:30.960Z,13.14
2023-03-30T16:12:44.116Z,13.39
2023-03-30T16:18:08.260Z,13.33
2023-03-30T16:23:05.231Z,13.27
2023-03-30T16:28:08.521Z,13.25
2023-03-30T16:33:10.689Z,12.81
2023-03-30T16:38:19.741Z,12.94
2023-03-30T16:56:55.248Z,11.36
2023-03-30T17:02:04.512Z,10.60
2023-03-30T17:07:14.431Z,10.74
2023-03-30T17:12:26.149Z,11.50
2023-03-30T17:17:46.069Z,11.35
2023-03-30T17:22:50.688Z,10.83
2023-03-30T17:27:48.325Z,10.66
2023-03-30T17:32:51.612Z,9.93
2023-03-30T17:38:08.103Z,10.30
2023-03-30T17:43:26.518Z,9.65
2023-03-30T17:50:35.638Z,9.13
2023-03-30T18:01:19.418Z,9.96
2023-03-30T18:06:29.087Z,9.66
2023-03-30T18:11:39.846Z,9.37
2023-03-30T18:16:51.850Z,9.23
2023-03-30T18:22:09.286Z,9.86
2023-03-30T18:27:42.671Z,10.00
2023-03-30T18:33:19.602Z,9.80
2023-03-30T18:38:37.297Z,8.85
2023-03-30T18:43:48.070Z,9.32
2023-03-30T18:49:21.204Z,9.36
2023-03-30T18:54:32.688Z,9.32
2023-03-30T18:59:50.286Z,9.08
2023-03-30T19:05:41.482Z,7.47
2023-03-30T19:10:50.722Z,8.74
2023-03-30T19:16:23.886Z,7.55
2023-03-30T19:21:26.164Z,8.17
2023-03-30T19:26:28.041Z,7.07
2023-03-30T19:31:24.571Z,8.43
2023-03-30T19:36:30.304Z,8.18
2023-03-30T19:41:31.269Z,7.58
2023-03-30T19:46:32.830Z,8.23
2023-03-30T19:52:26.583Z,8.03
2023-03-30T19:57:37.696Z,7.89
2023-03-30T20:03:03.402Z,6.79
2023-03-30T20:08:23.221Z,8.00
2023-03-30T20:13:50.683Z,8.02
2023-03-30T20:18:50.839Z,6.81
2023-03-30T20:23:50.686Z,8.05
2023-03-30T20:28:56.638Z,7.19
2023-03-30T20:34:09.240Z,8.31
2023-03-30T20:39:28.265Z,8.40
2023-03-30T20:44:38.734Z,7.85
2023-03-30T20:55:26.393Z,9.49
2023-03-30T21:00:37.976Z,9.10
2023-03-30T21:05:43.600Z,9.09
2023-03-30T21:10:49.177Z,9.22
2023-03-30T21:16:25.434Z,8.90
2023-03-30T21:23:40.185Z,8.99
2023-03-30T21:28:23.664Z,9.60
2023-03-30T21:33:51.901Z,8.93
2023-03-30T21:39:04.947Z,8.52
2023-03-30T21:44:19.743Z,7.95
2023-03-30T21:49:15.150Z,9.05
2023-03-30T21:54:21.032Z,7.76
2023-03-30T21:59:19.182Z,8.17
2023-03-30T22:05:11.505Z,7.06
2023-03-30T22:10:58.264Z,7.62
2023-03-30T22:16:35.185Z,8.65
2023-03-30T22:21:58.000Z,8.52
2023-03-30T22:39:25.901Z,7.86
2023-03-30T22:44:40.717Z,7.87
2023-03-30T22:49:41.326Z,7.57
2023-03-30T22:54:36.488Z,7.90
2023-03-30T22:59:35.121Z,7.62
2023-03-30T23:04:31.527Z,7.44
2023-03-30T23:09:28.820Z,6.79
2023-03-30T23:14:28.843Z,7.12
2023-03-30T23:19:38.201Z,6.99
2023-03-30T23:24:40.329Z,6.98
2023-03-30T23:29:52.751Z,6.59
2023-03-30T23:34:55.742Z,6.25
2023-03-30T23:39:52.101Z,6.86
2023-03-30T23:44:47.112Z,6.55
2023-03-30T23:49:41.049Z,7.64
2023-03-30T23:54:38.736Z,7.82
2023-03-30T23:59:34.950Z,7.22
